Time;durP1;ratioP1;P1;durP2;ratioP2;P2;SDS_P1;SDS_P2;PMS_P1;PMS_P2;Temp;Humidity;BMP_temperature;BMP_pressure;BME280_temperature;BME280_humidity;BME280_pressure;Samples;Min_cycle;Max_cycle;Signal;HPM_P1;HPM_P2
2022/05/08 00:01:35;;;;;;;39.30;30.65;;;12.10;99.90;;;;;;7362919;32;20133;-63
2022/05/08 00:05:37;;;;;;;42.92;29.48;;;12.10;99.90;;;;;;7342489;32;20210;-63
2022/05/08 00:09:39;;;;;;;40.47;30.08;;;12.20;99.90;;;;;;7369536;32;20182;-61
2022/05/08 00:13:41;;;;;;;45.12;31.42;;;12.20;99.90;;;;;;7357150;32;20122;-62
2022/05/08 00:17:44;;;;;;;39.70;28.87;;;12.30;99.90;;;;;;7360278;32;20114;-61
2022/05/08 00:21:46;;;;;;;40.00;26.58;;;12.30;99.90;;;;;;7363678;32;20167;-61
2022/05/08 00:25:47;;;;;;;30.85;24.00;;;12.30;99.90;;;;;;7361559;32;20268;-62
2022/05/08 00:29:49;;;;;;;31.05;22.92;;;12.30;99.90;;;;;;7364364;32;20111;-61
2022/05/08 00:33:51;;;;;;;31.37;18.83;;;12.30;99.90;;;;;;7362561;32;20295;-62
2022/05/08 00:37:52;;;;;;;18.98;14.38;;;12.20;99.90;;;;;;7364213;32;20106;-59
2022/05/08 00:41:54;;;;;;;21.00;13.68;;;12.20;99.90;;;;;;7361193;32;20539;-60
2022/05/08 00:45:56;;;;;;;19.33;13.10;;;12.10;99.90;;;;;;7350180;32;20161;-59
2022/05/08 00:49:59;;;;;;;20.75;12.60;;;11.90;99.90;;;;;;7364439;32;20269;-59
2022/05/08 00:54:03;;;;;;;14.15;11.32;;;11.90;99.90;;;;;;7367594;32;20718;-59
2022/05/08 00:58:05;;;;;;;14.07;10.30;;;11.70;99.90;;;;;;7363465;32;20111;-59
2022/05/08 01:02:07;;;;;;;16.77;10.10;;;11.60;99.90;;;;;;7360135;32;20186;-59
2022/05/08 01:06:17;;;;;;;14.75;10.07;;;11.50;99.90;;;;;;7357116;32;20784;-59
2022/05/08 01:10:18;;;;;;;17.58;9.95;;;11.50;99.90;;;;;;7363160;32;20611;-59
2022/05/08 01:14:22;;;;;;;16.12;9.35;;;11.50;99.90;;;;;;7358842;32;20125;-59
2022/05/08 01:18:24;;;;;;;14.40;8.55;;;11.50;99.90;;;;;;7355535;32;20722;-59
2022/05/08 01:22:25;;;;;;;17.80;9.60;;;11.40;99.90;;;;;;7359836;32;20144;-59
2022/05/08 01:26:27;;;;;;;11.90;8.52;;;11.30;99.90;;;;;;7356480;32;20503;-59
2022/05/08 01:30:29;;;;;;;13.93;8.32;;;11.10;99.90;;;;;;7350195;32;20217;-59
2022/05/08 01:34:31;;;;;;;14.93;8.75;;;11.10;99.90;;;;;;7356140;32;20131;-59
2022/05/08 01:38:32;;;;;;;15.75;9.38;;;11.00;99.90;;;;;;7358649;32;20276;-59
2022/05/08 01:42:34;;;;;;;10.20;8.13;;;11.00;99.90;;;;;;7359999;32;20736;-59
2022/05/08 01:46:35;;;;;;;13.50;8.95;;;10.90;99.90;;;;;;7359114;32;20198;-59
2022/05/08 01:50:38;;;;;;;13.15;7.93;;;10.80;99.90;;;;;;7363013;32;20219;-59
2022/05/08 01:54:40;;;;;;;13.88;7.55;;;10.70;99.90;;;;;;7358985;32;20280;-59
2022/05/08 01:58:41;;;;;;;13.55;7.35;;;10.70;99.90;;;;;;7362865;32;20110;-59
2022/05/08 02:02:44;;;;;;;15.90;8.50;;;10.70;99.90;;;;;;7360121;32;20133;-59
2022/05/08 02:06:46;;;;;;;16.37;7.87;;;10.50;99.90;;;;;;7354247;32;20111;-59
2022/05/08 02:10:48;;;;;;;14.98;8.60;;;10.50;99.90;;;;;;7361296;32;20455;-59
2022/05/08 02:14:50;;;;;;;13.43;8.15;;;10.40;99.90;;;;;;7356215;32;20114;-60
2022/05/08 02:18:51;;;;;;;12.23;7.75;;;10.50;99.90;;;;;;7365434;32;20617;-59
2022/05/08 02:22:53;;;;;;;16.27;9.00;;;10.40;99.90;;;;;;7357587;32;20110;-60
2022/05/08 02:26:55;;;;;;;15.20;9.02;;;10.40;99.90;;;;;;7362108;32;20112;-60
2022/05/08 02:30:56;;;;;;;14.70;9.13;;;10.40;99.90;;;;;;7362737;32;20129;-61
2022/05/08 02:34:58;;;;;;;14.80;9.23;;;10.30;99.90;;;;;;7360260;32;20142;-60
2022/05/08 02:38:59;;;;;;;15.50;9.05;;;10.30;99.90;;;;;;7360226;32;20173;-60
2022/05/08 02:43:01;;;;;;;14.48;9.23;;;10.30;99.90;;;;;;7361671;32;20114;-60
2022/05/08 02:47:03;;;;;;;17.42;9.82;;;10.20;99.90;;;;;;7356449;32;20110;-60
2022/05/08 02:51:05;;;;;;;11.98;8.48;;;10.20;99.90;;;;;;7350639;32;20694;-60
2022/05/08 02:59:28;;;;;;;15.07;9.93;;;10.10;99.90;;;;;;7356328;32;20190;-60
2022/05/08 03:03:30;;;;;;;15.82;9.82;;;10.10;99.90;;;;;;7361492;32;20599;-60
2022/05/08 03:07:32;;;;;;;16.70;10.02;;;10.20;99.90;;;;;;7356954;32;20137;-60
2022/05/08 03:11:33;;;;;;;17.58;11.00;;;10.20;99.90;;;;;;7362323;32;20832;-60
2022/05/08 03:15:35;;;;;;;18.87;10.95;;;10.20;99.90;;;;;;7363901;32;20100;-60
2022/05/08 03:19:37;;;;;;;17.92;11.00;;;10.20;99.90;;;;;;7368078;32;20137;-60
2022/05/08 03:23:39;;;;;;;21.00;11.40;;;10.30;99.90;;;;;;7368562;32;20311;-60
2022/05/08 03:27:41;;;;;;;18.80;12.77;;;10.30;99.90;;;;;;7360468;32;20191;-60
2022/05/08 03:31:43;;;;;;;21.75;15.15;;;10.30;99.90;;;;;;7369593;32;20588;-59
2022/05/08 03:35:45;;;;;;;19.92;13.35;;;10.30;99.90;;;;;;7362752;32;20142;-60
2022/05/08 03:39:47;;;;;;;20.45;14.77;;;10.30;99.90;;;;;;7361163;32;20186;-60
2022/05/08 03:43:50;;;;;;;23.12;15.43;;;10.20;99.90;;;;;;7355560;32;20541;-61
2022/05/08 03:47:53;;;;;;;24.02;16.23;;;10.20;99.90;;;;;;7359908;32;20111;-60
2022/05/08 03:51:54;;;;;;;24.00;16.55;;;10.20;99.90;;;;;;7353703;32;20110;-60
2022/05/08 03:55:56;;;;;;;24.30;16.08;;;10.20;99.90;;;;;;7360844;32;20107;-60
2022/05/08 03:59:58;;;;;;;26.73;17.85;;;10.20;99.90;;;;;;7361920;32;20107;-61
2022/05/08 04:04:02;;;;;;;26.35;17.45;;;10.10;99.90;;;;;;7369046;32;20166;-60
2022/05/08 04:08:04;;;;;;;28.38;19.37;;;10.10;99.90;;;;;;7343831;32;20133;-60
2022/05/08 04:12:12;;;;;;;28.10;18.48;;;10.00;99.90;;;;;;7364240;32;20151;-61
2022/05/08 04:16:17;;;;;;;29.02;19.83;;;9.90;99.90;;;;;;7353538;32;20522;-62
2022/05/08 04:20:19;;;;;;;30.55;20.67;;;9.90;99.90;;;;;;7356334;32;20779;-61
2022/05/08 04:24:21;;;;;;;29.37;21.58;;;9.80;99.90;;;;;;7361854;32;20212;-60
2022/05/08 04:28:23;;;;;;;34.47;23.55;;;9.70;99.90;;;;;;7361455;32;20130;-60
2022/05/08 04:32:24;;;;;;;37.08;24.33;;;9.80;99.90;;;;;;7349978;32;20231;-60
2022/05/08 04:36:27;;;;;;;33.33;22.67;;;9.70;99.90;;;;;;7358572;32;20206;-61
2022/05/08 04:40:28;;;;;;;35.03;23.27;;;9.70;99.90;;;;;;7363099;32;20478;-61
2022/05/08 04:44:30;;;;;;;35.25;23.25;;;9.80;99.90;;;;;;7358946;32;20111;-61
2022/05/08 04:48:32;;;;;;;30.60;22.00;;;9.80;99.90;;;;;;7359133;32;20748;-62
2022/05/08 04:52:33;;;;;;;31.77;20.40;;;9.80;99.90;;;;;;7365903;32;20753;-60
2022/05/08 04:56:35;;;;;;;30.58;18.80;;;9.80;99.90;;;;;;7367586;32;20125;-60
2022/05/08 05:00:37;;;;;;;29.20;17.27;;;9.80;99.90;;;;;;7357970;32;20693;-60
2022/05/08 05:04:39;;;;;;;23.52;15.35;;;10.00;99.90;;;;;;7364325;32;20883;-60
2022/05/08 05:08:41;;;;;;;26.45;15.77;;;10.10;99.90;;;;;;7352877;32;20103;-60
2022/05/08 05:12:42;;;;;;;29.52;15.65;;;10.00;99.90;;;;;;7355834;32;20117;-66
2022/05/08 05:16:44;;;;;;;25.48;16.08;;;10.10;99.90;;;;;;7358060;32;20107;-66
2022/05/08 05:20:46;;;;;;;22.73;14.20;;;10.10;99.90;;;;;;7362311;32;20739;-65
2022/05/08 05:24:47;;;;;;;23.70;13.60;;;10.20;99.90;;;;;;7357044;32;20157;-66
2022/05/08 05:28:49;;;;;;;24.20;14.80;;;10.20;99.90;;;;;;7360027;32;20193;-66
2022/05/08 05:32:50;;;;;;;25.17;14.85;;;10.20;99.90;;;;;;7364529;32;20109;-65
2022/05/08 05:36:52;;;;;;;25.50;13.98;;;10.10;99.90;;;;;;7354987;32;20133;-64
2022/05/08 05:40:54;;;;;;;24.33;12.23;;;10.10;99.90;;;;;;7353553;32;20114;-65
2022/05/08 05:44:55;;;;;;;23.08;12.35;;;10.10;99.90;;;;;;7357772;32;20224;-66
2022/05/08 05:48:57;;;;;;;26.65;11.45;;;10.10;99.90;;;;;;7355661;32;20103;-66
2022/05/08 05:52:59;;;;;;;27.60;9.63;;;10.10;99.90;;;;;;7361843;32;20194;-64
2022/05/08 05:57:02;;;;;;;24.58;8.40;;;10.00;99.90;;;;;;7364260;32;20095;-68
2022/05/08 06:01:03;;;;;;;30.40;7.60;;;9.90;99.90;;;;;;7363431;32;20115;-64
2022/05/08 06:05:06;;;;;;;19.37;7.85;;;9.90;99.90;;;;;;7360398;32;20110;-65
2022/05/08 06:09:08;;;;;;;24.27;7.32;;;9.80;99.90;;;;;;7339868;32;20567;-66
2022/05/08 06:13:10;;;;;;;21.60;7.10;;;9.80;99.90;;;;;;7360674;32;20107;-66
2022/05/08 06:17:13;;;;;;;21.80;7.32;;;9.90;99.90;;;;;;7364640;32;20099;-66
2022/05/08 06:21:14;;;;;;;22.80;6.90;;;10.00;99.90;;;;;;7360272;32;20151;-64
2022/05/08 06:25:16;;;;;;;22.00;6.62;;;9.90;99.90;;;;;;7343137;32;20115;-66
2022/05/08 06:29:18;;;;;;;19.55;6.45;;;9.80;99.90;;;;;;7355537;32;20158;-65
2022/05/08 06:33:20;;;;;;;21.80;6.30;;;9.80;99.90;;;;;;7360981;32;20110;-65
2022/05/08 06:37:22;;;;;;;20.85;5.78;;;9.70;99.90;;;;;;7361666;32;20114;-64
2022/05/08 06:41:24;;;;;;;23.17;6.22;;;9.70;99.90;;;;;;7346823;32;20111;-65
2022/05/08 06:45:26;;;;;;;21.90;5.75;;;9.80;99.90;;;;;;7364156;32;20244;-65
2022/05/08 06:49:28;;;;;;;24.20;5.55;;;10.20;99.90;;;;;;7363899;32;20103;-68
2022/05/08 06:53:30;;;;;;;23.38;6.00;;;10.50;99.90;;;;;;7371030;32;20223;-65
2022/05/08 06:57:32;;;;;;;21.50;5.45;;;10.90;99.90;;;;;;7362427;32;20820;-66
2022/05/08 07:01:42;;;;;;;22.92;5.87;;;11.50;99.90;;;;;;7367052;32;20639;-63
2022/05/08 07:05:47;;;;;;;18.25;5.60;;;11.70;99.90;;;;;;7357997;32;20260;-62
2022/05/08 07:09:48;;;;;;;19.23;5.68;;;11.90;99.90;;;;;;7361855;32;20138;-65
2022/05/08 07:13:50;;;;;;;19.40;4.47;;;11.60;99.90;;;;;;7366399;32;20965;-63
2022/05/08 07:17:52;;;;;;;23.38;5.07;;;11.40;99.90;;;;;;7366098;32;20107;-64
2022/05/08 07:21:53;;;;;;;17.98;4.60;;;11.30;99.90;;;;;;7361590;32;20122;-63
2022/05/08 07:25:55;;;;;;;32.33;13.60;;;11.20;99.90;;;;;;7365118;32;20837;-63
2022/05/08 07:29:57;;;;;;;15.85;4.87;;;11.30;99.90;;;;;;7360446;32;20204;-63
2022/05/08 07:38:21;;;;;;;16.55;3.90;;;11.60;99.90;;;;;;7360097;32;20940;-64
2022/05/08 07:42:23;;;;;;;14.32;4.47;;;11.50;99.90;;;;;;7369988;32;20200;-64
2022/05/08 07:46:25;;;;;;;18.33;4.53;;;11.60;99.90;;;;;;7363995;32;20130;-65
2022/05/08 07:50:27;;;;;;;20.27;5.03;;;11.70;99.90;;;;;;7359732;32;20767;-67
2022/05/08 07:54:28;;;;;;;14.55;3.70;;;12.00;99.90;;;;;;7356352;32;20136;-64
2022/05/08 07:58:32;;;;;;;17.77;4.30;;;12.20;99.90;;;;;;7366496;32;20396;-64
2022/05/08 08:02:36;;;;;;;14.70;3.47;;;12.40;99.90;;;;;;7360523;32;20126;-64
2022/05/08 08:06:38;;;;;;;18.75;4.20;;;12.20;99.90;;;;;;7361232;32;20213;-64
2022/05/08 08:10:40;;;;;;;15.48;3.90;;;12.40;99.90;;;;;;7362253;32;20236;-64
2022/05/08 08:14:42;;;;;;;16.83;5.22;;;12.50;99.90;;;;;;7340544;32;20339;-64
2022/05/08 08:18:54;;;;;;;18.02;4.53;;;12.40;99.90;;;;;;7359050;32;20215;-64
2022/05/08 08:22:55;;;;;;;13.48;4.15;;;12.60;99.90;;;;;;7364661;32;20261;-63
2022/05/08 08:26:57;;;;;;;16.42;4.72;;;12.90;99.90;;;;;;7362098;32;20455;-64
2022/05/08 08:30:59;;;;;;;15.43;4.25;;;13.00;99.90;;;;;;7357851;32;20741;-65
2022/05/08 08:35:01;;;;;;;14.95;4.30;;;13.60;99.90;;;;;;7355916;32;20613;-64
2022/05/08 08:39:03;;;;;;;20.45;5.05;;;14.20;99.90;;;;;;7364365;32;20124;-64
2022/05/08 08:43:05;;;;;;;15.27;5.87;;;14.40;99.90;;;;;;7363296;32;20115;-66
2022/05/08 08:51:33;;;;;;;16.77;4.90;;;15.00;99.90;;;;;;7357949;32;20194;-65
2022/05/08 08:55:35;;;;;;;19.55;5.62;;;14.70;99.90;;;;;;7355278;32;20107;-66
2022/05/08 08:59:37;;;;;;;14.27;4.22;;;15.20;99.90;;;;;;7358931;32;20202;-66
2022/05/08 09:03:38;;;;;;;16.90;4.03;;;15.30;99.90;;;;;;7356065;32;20407;-64
2022/05/08 09:07:45;;;;;;;13.60;3.92;;;15.20;99.90;;;;;;7367043;32;20232;-64
2022/05/08 09:11:47;;;;;;;15.30;3.72;;;15.10;99.90;;;;;;7368054;32;20609;-63
2022/05/08 09:15:49;;;;;;;15.32;3.40;;;15.70;99.90;;;;;;7363056;32;20128;-64
2022/05/08 09:19:51;;;;;;;15.80;5.18;;;16.40;99.90;;;;;;7363288;32;20222;-65
2022/05/08 09:24:09;;;;;;;15.23;3.17;;;16.30;99.90;;;;;;7359489;32;20129;-65
2022/05/08 09:28:18;;;;;;;15.43;3.70;;;16.30;99.90;;;;;;7363192;32;20221;-65
2022/05/08 09:32:37;;;;;;;17.65;3.55;;;16.40;99.90;;;;;;7362497;32;20103;-64
2022/05/08 09:36:38;;;;;;;12.00;3.87;;;17.70;99.90;;;;;;7358844;32;20115;-65
2022/05/08 09:40:40;;;;;;;12.75;3.70;;;18.00;99.90;;;;;;7360803;32;20194;-65
2022/05/08 09:45:04;;;;;;;12.85;3.85;;;18.20;99.90;;;;;;7356439;32;20106;-65
2022/05/08 09:49:06;;;;;;;11.57;3.50;;;17.90;99.90;;;;;;7362952;32;20732;-64
2022/05/08 09:53:08;;;;;;;16.48;3.55;;;17.50;99.90;;;;;;7359595;32;20145;-64
2022/05/08 09:57:10;;;;;;;10.13;3.00;;;17.50;99.90;;;;;;7347702;32;20195;-64
2022/05/08 10:01:13;;;;;;;13.48;3.40;;;17.20;99.90;;;;;;7357439;32;20107;-65
2022/05/08 10:05:15;;;;;;;10.75;3.58;;;16.30;99.90;;;;;;7361846;32;20174;-65
2022/05/08 10:18:28;;;;;;;13.55;3.00;;;17.00;99.90;;;;;;7366943;32;20102;-63
2022/05/08 10:22:49;;;;;;;10.18;3.15;;;16.80;98.20;;;;;;7358904;32;20158;-63
2022/05/08 10:27:27;;;;;;;11.57;2.85;;;17.00;99.50;;;;;;7355471;32;20550;-64
2022/05/08 10:31:45;;;;;;;9.52;2.92;;;17.70;99.50;;;;;;7366922;32;20252;-64
2022/05/08 10:36:06;;;;;;;13.18;2.37;;;17.60;99.60;;;;;;7359302;32;20195;-64
2022/05/08 10:40:23;;;;;;;8.68;2.10;;;17.60;99.60;;;;;;7359482;32;20551;-65
2022/05/08 10:44:35;;;;;;;10.67;2.40;;;17.60;99.90;;;;;;7357012;32;20940;-66
2022/05/08 10:48:37;;;;;;;8.32;2.00;;;17.50;95.30;;;;;;7359620;32;20103;-66
2022/05/08 10:52:41;;;;;;;6.72;2.10;;;16.70;94.90;;;;;;7360663;32;20537;-65
2022/05/08 10:56:46;;;;;;;9.80;2.28;;;16.70;98.50;;;;;;7354380;32;20233;-65
2022/05/08 11:00:47;;;;;;;6.22;1.87;;;17.00;93.40;;;;;;7357680;32;20588;-64
2022/05/08 11:04:52;;;;;;;5.25;1.42;;;17.10;92.10;;;;;;7348369;32;20148;-64
2022/05/08 11:08:59;;;;;;;7.60;1.70;;;17.30;93.50;;;;;;7356659;32;20106;-63
2022/05/08 11:13:02;;;;;;;4.50;1.58;;;17.50;90.60;;;;;;7365557;32;20365;-64
2022/05/08 11:17:18;;;;;;;6.03;1.60;;;17.50;88.20;;;;;;7363084;32;20129;-64
2022/05/08 11:21:20;;;;;;;8.98;2.22;;;17.30;86.20;;;;;;7358884;32;20126;-63
2022/05/08 11:25:22;;;;;;;6.22;1.90;;;16.90;85.20;;;;;;7352347;32;20186;-64
2022/05/08 11:29:24;;;;;;;8.38;1.73;;;17.00;90.10;;;;;;7362611;32;20490;-65
2022/05/08 11:38:01;;;;;;;5.50;1.70;;;17.30;90.80;;;;;;7364745;32;20111;-64
2022/05/08 11:42:03;;;;;;;8.82;2.00;;;16.90;83.60;;;;;;7360880;32;20203;-64
2022/05/08 11:46:05;;;;;;;9.65;1.67;;;16.90;87.90;;;;;;7365136;32;20142;-65
2022/05/08 11:50:07;;;;;;;7.82;1.45;;;17.20;87.60;;;;;;7362073;32;20126;-64
2022/05/08 11:54:28;;;;;;;6.57;1.70;;;17.20;89.80;;;;;;7362263;32;20808;-65
2022/05/08 11:58:31;;;;;;;6.25;1.67;;;17.20;89.20;;;;;;7363737;32;20103;-65
2022/05/08 12:02:44;;;;;;;5.03;1.30;;;16.90;85.40;;;;;;7365364;32;20822;-65
2022/05/08 12:07:13;;;;;;;7.10;1.37;;;17.00;87.50;;;;;;7363376;32;20133;-64
2022/05/08 12:11:47;;;;;;;5.57;1.42;;;17.30;87.90;;;;;;7360450;32;20156;-65
2022/05/08 12:16:09;;;;;;;4.78;1.55;;;17.40;89.60;;;;;;7318079;32;20161;-66
2022/05/08 12:20:14;;;;;;;7.60;1.60;;;17.40;85.90;;;;;;7349448;32;20369;-64
2022/05/08 12:24:19;;;;;;;4.35;1.23;;;17.30;84.80;;;;;;7359761;32;20137;-60
2022/05/08 12:28:22;;;;;;;4.87;1.40;;;17.40;90.10;;;;;;7359822;32;20122;-65
2022/05/08 12:32:26;;;;;;;3.97;1.40;;;17.80;87.30;;;;;;7359995;32;20139;-64
2022/05/08 12:36:28;;;;;;;4.97;1.37;;;17.40;79.70;;;;;;7357892;32;20114;-64
2022/05/08 12:40:30;;;;;;;6.62;1.20;;;17.80;89.40;;;;;;7356824;32;20129;-61
2022/05/08 12:44:33;;;;;;;4.57;1.50;;;18.10;83.80;;;;;;7360865;32;20198;-59
2022/05/08 12:48:35;;;;;;;5.12;1.10;;;18.10;84.10;;;;;;7359362;32;20103;-59
2022/05/08 12:52:37;;;;;;;4.53;1.12;;;18.40;84.50;;;;;;7359922;32;20106;-59
2022/05/08 12:56:40;;;;;;;6.10;1.55;;;18.60;83.20;;;;;;7361448;32;20120;-59
2022/05/08 13:00:41;;;;;;;4.70;1.37;;;18.70;82.30;;;;;;7357953;32;20197;-58
2022/05/08 13:04:45;;;;;;;5.65;1.05;;;18.30;81.30;;;;;;7239252;32;20182;-59
2022/05/08 13:08:46;;;;;;;10.60;1.87;;;18.30;84.10;;;;;;7237331;32;20407;-59
2022/05/08 13:12:48;;;;;;;4.10;1.20;;;18.70;81.00;;;;;;7233651;32;20104;-59
2022/05/08 13:16:50;;;;;;;5.15;1.30;;;18.70;78.60;;;;;;7229323;32;20684;-60
2022/05/08 13:20:52;;;;;;;4.50;1.48;;;18.60;78.40;;;;;;7241268;32;20524;-59
2022/05/08 13:24:54;;;;;;;5.35;1.35;;;19.00;82.90;;;;;;7236134;32;20548;-59
2022/05/08 13:28:55;;;;;;;7.68;1.70;;;19.20;81.10;;;;;;7240935;32;20105;-59
2022/05/08 13:32:57;;;;;;;6.60;1.87;;;19.20;80.80;;;;;;7235743;32;20104;-59
2022/05/08 13:36:59;;;;;;;6.53;2.05;;;18.90;82.40;;;;;;7227730;32;20175;-59
2022/05/08 13:41:03;;;;;;;7.65;2.00;;;18.80;81.20;;;;;;7232149;32;20180;-61
2022/05/08 13:45:05;;;;;;;6.90;1.80;;;18.60;78.10;;;;;;7235000;32;20127;-60
2022/05/08 13:49:08;;;;;;;5.00;1.77;;;19.10;86.60;;;;;;7240744;32;20109;-58
2022/05/08 13:53:11;;;;;;;9.10;2.20;;;19.00;84.90;;;;;;7278130;32;20121;-62
2022/05/08 13:57:13;;;;;;;7.10;1.62;;;18.90;80.10;;;;;;7234113;32;20112;-62
2022/05/08 14:01:14;;;;;;;5.32;1.50;;;19.00;86.10;;;;;;7249945;32;20247;-60
2022/05/08 14:05:16;;;;;;;5.30;2.00;;;19.10;86.40;;;;;;7360582;32;20137;-58
2022/05/08 14:09:18;;;;;;;4.60;1.65;;;19.00;83.60;;;;;;7345053;32;20107;-59
2022/05/08 14:13:22;;;;;;;8.18;2.10;;;19.20;86.40;;;;;;7363748;32;20186;-58
2022/05/08 14:17:23;;;;;;;9.10;2.00;;;19.00;81.80;;;;;;7360485;32;20122;-59
2022/05/08 14:21:25;;;;;;;8.75;2.12;;;18.70;82.90;;;;;;7358744;32;20713;-59
2022/05/08 14:25:27;;;;;;;6.53;1.55;;;18.80;89.20;;;;;;7363130;32;20125;-59
2022/05/08 14:29:28;;;;;;;5.62;1.62;;;19.30;87.70;;;;;;7359521;32;20144;-59
2022/05/08 14:38:12;;;;;;;6.30;1.77;;;19.40;83.00;;;;;;7258288;32;20116;-59
2022/05/08 14:42:14;;;;;;;9.73;1.80;;;19.40;82.50;;;;;;7307753;32;20199;-59
2022/05/08 14:46:16;;;;;;;7.40;1.58;;;19.40;81.40;;;;;;7356087;32;20133;-59
2022/05/08 14:50:17;;;;;;;5.15;1.55;;;19.40;85.20;;;;;;7355625;32;20497;-59
2022/05/08 14:54:19;;;;;;;7.32;1.48;;;19.50;80.50;;;;;;7361645;32;20125;-59
2022/05/08 14:58:23;;;;;;;5.32;1.35;;;19.90;80.80;;;;;;7359309;32;20740;-60
2022/05/08 15:02:24;;;;;;;5.62;1.25;;;20.20;77.20;;;;;;7353934;32;20143;-62
2022/05/08 15:06:30;;;;;;;4.20;1.30;;;20.10;78.10;;;;;;7359754;32;20099;-61
2022/05/08 15:10:33;;;;;;;7.20;1.77;;;19.90;82.30;;;;;;7358711;32;20438;-62
2022/05/08 15:14:35;;;;;;;10.32;1.70;;;19.40;80.20;;;;;;7362474;32;20135;-63
2022/05/08 15:18:48;;;;;;;4.87;1.60;;;19.20;83.70;;;;;;7359004;32;20563;-63
2022/05/08 15:22:50;;;;;;;7.22;1.50;;;19.10;83.60;;;;;;7356536;32;20554;-65
2022/05/08 15:26:52;;;;;;;7.57;1.92;;;18.80;85.20;;;;;;7368159;32;20594;-63
2022/05/08 15:30:55;;;;;;;5.87;1.70;;;18.80;84.10;;;;;;7366281;32;20102;-64
2022/05/08 15:34:58;;;;;;;4.57;1.50;;;18.80;83.40;;;;;;7356791;32;20106;-62
2022/05/08 15:39:00;;;;;;;7.70;1.95;;;18.70;86.50;;;;;;7351844;32;20718;-62
2022/05/08 15:43:04;;;;;;;4.70;1.50;;;18.70;83.30;;;;;;7347852;32;20291;-62
2022/05/08 15:47:06;;;;;;;9.18;1.90;;;18.40;82.90;;;;;;7360942;32;20125;-62
2022/05/08 15:51:08;;;;;;;6.53;1.62;;;18.20;84.90;;;;;;7360871;32;20114;-62
2022/05/08 15:55:09;;;;;;;5.00;1.40;;;18.20;88.90;;;;;;7366339;32;20540;-62
2022/05/08 15:59:11;;;;;;;8.25;2.03;;;18.50;89.40;;;;;;7359792;32;20103;-62
2022/05/08 16:03:13;;;;;;;8.75;2.30;;;18.30;88.30;;;;;;7358978;32;20510;-62
2022/05/08 16:07:15;;;;;;;4.25;1.80;;;18.40;86.80;;;;;;7363643;32;20579;-62
2022/05/08 16:11:17;;;;;;;7.20;1.90;;;18.40;89.30;;;;;;7366915;32;20157;-62
2022/05/08 16:23:59;;;;;;;8.35;1.87;;;18.20;87.90;;;;;;7361516;32;20333;-64
2022/05/08 16:28:01;;;;;;;5.80;1.67;;;18.00;87.50;;;;;;7347388;32;20121;-63
2022/05/08 16:32:03;;;;;;;6.43;2.37;;;18.10;85.60;;;;;;7356723;32;20224;-63
2022/05/08 16:36:05;;;;;;;5.00;1.37;;;18.20;86.50;;;;;;7363732;32;20256;-63
2022/05/08 16:40:07;;;;;;;5.87;1.65;;;18.10;87.80;;;;;;7362449;32;20133;-62
2022/05/08 16:44:09;;;;;;;5.50;1.77;;;18.10;87.70;;;;;;7355674;32;20115;-63
2022/05/08 16:48:12;;;;;;;8.25;1.80;;;18.00;89.90;;;;;;7367529;32;20462;-63
2022/05/08 16:52:13;;;;;;;7.82;1.60;;;18.00;89.90;;;;;;7362166;32;20199;-63
2022/05/08 16:56:15;;;;;;;8.30;1.50;;;17.90;89.70;;;;;;7363774;32;21151;-64
2022/05/08 17:00:18;;;;;;;8.05;1.83;;;17.80;88.90;;;;;;7352215;32;20786;-63
2022/05/08 17:04:20;;;;;;;5.12;1.58;;;17.60;90.00;;;;;;7370418;32;20141;-64
2022/05/08 17:08:21;;;;;;;5.78;1.60;;;17.60;90.00;;;;;;7352944;32;20534;-63
2022/05/08 17:12:24;;;;;;;6.05;1.30;;;17.50;90.10;;;;;;7360799;32;20190;-64
2022/05/08 17:16:26;;;;;;;9.85;1.67;;;17.50;91.00;;;;;;7358030;32;20226;-63
2022/05/08 17:20:28;;;;;;;5.78;1.70;;;17.40;90.00;;;;;;7358223;32;20119;-64
2022/05/08 17:24:31;;;;;;;6.47;1.52;;;17.40;90.40;;;;;;7357357;32;20486;-63
2022/05/08 17:28:50;;;;;;;7.25;3.62;;;17.30;89.80;;;;;;7363285;32;20633;-64
2022/05/08 17:32:52;;;;;;;6.78;1.52;;;17.40;90.10;;;;;;7363277;32;20626;-65
2022/05/08 17:36:53;;;;;;;5.57;1.42;;;17.30;90.60;;;;;;7364992;32;20546;-64
2022/05/08 17:40:55;;;;;;;2.87;1.40;;;17.20;91.50;;;;;;7355957;32;20107;-64
2022/05/08 17:44:57;;;;;;;6.97;3.33;;;17.20;91.00;;;;;;7355495;32;20211;-64
2022/05/08 17:48:59;;;;;;;6.03;1.62;;;17.20;91.60;;;;;;7359826;32;20110;-64
2022/05/08 17:53:01;;;;;;;5.12;1.30;;;17.10;91.10;;;;;;7356246;32;20202;-64
2022/05/08 17:57:04;;;;;;;8.13;1.50;;;17.00;93.00;;;;;;7356105;32;20122;-64
2022/05/08 18:01:06;;;;;;;3.60;1.30;;;17.00;93.30;;;;;;7361566;32;20143;-64
2022/05/08 18:09:28;;;;;;;4.00;1.27;;;16.80;93.10;;;;;;7358132;32;20176;-66
2022/05/08 18:13:30;;;;;;;5.97;2.17;;;16.80;92.10;;;;;;7357130;32;20499;-63
2022/05/08 18:17:31;;;;;;;6.35;2.03;;;16.80;92.20;;;;;;7353446;32;20162;-65
2022/05/08 18:21:37;;;;;;;4.97;1.40;;;16.60;93.40;;;;;;7354333;32;20275;-66
2022/05/08 18:25:39;;;;;;;7.53;1.15;;;16.50;93.80;;;;;;7353869;32;20129;-63
2022/05/08 18:29:41;;;;;;;6.00;1.37;;;16.40;95.00;;;;;;7354673;32;20744;-64
2022/05/08 18:33:44;;;;;;;14.80;8.75;;;16.20;97.10;;;;;;7358532;32;20551;-67
2022/05/08 18:37:45;;;;;;;6.47;1.50;;;16.10;98.00;;;;;;7359254;32;20111;-67
2022/05/08 18:41:47;;;;;;;6.93;1.27;;;16.00;98.00;;;;;;7362292;32;20220;-66
2022/05/08 18:45:49;;;;;;;6.50;1.30;;;15.80;99.40;;;;;;7364909;32;20107;-67
2022/05/08 18:49:50;;;;;;;4.78;1.27;;;15.60;99.90;;;;;;7353408;32;20263;-68
2022/05/08 18:53:52;;;;;;;7.47;1.50;;;15.50;99.90;;;;;;7366132;32;20121;-67
2022/05/08 18:57:54;;;;;;;7.20;1.50;;;15.30;99.90;;;;;;7359970;32;20216;-67
2022/05/08 19:01:56;;;;;;;4.43;0.98;;;15.00;99.90;;;;;;7361741;32;20129;-67
2022/05/08 19:05:58;;;;;;;8.73;1.52;;;14.80;99.90;;;;;;7354024;32;20125;-65
2022/05/08 19:09:59;;;;;;;5.87;1.40;;;14.50;99.90;;;;;;7362481;32;20471;-67
2022/05/08 19:14:01;;;;;;;7.57;1.67;;;14.30;99.90;;;;;;7359532;32;20446;-67
2022/05/08 19:18:03;;;;;;;4.22;1.70;;;14.00;99.90;;;;;;7365790;32;20111;-64
2022/05/08 19:22:05;;;;;;;6.37;1.60;;;13.80;99.90;;;;;;7364501;32;20176;-63
2022/05/08 19:26:07;;;;;;;6.93;1.73;;;13.50;99.90;;;;;;7364761;32;20744;-63
2022/05/08 19:30:09;;;;;;;10.32;2.05;;;13.40;99.90;;;;;;7352310;32;20527;-62
2022/05/08 19:38:44;;;;;;;6.62;2.92;;;12.90;99.90;;;;;;7327189;32;20293;-62
2022/05/08 19:42:48;;;;;;;8.65;2.78;;;12.70;99.90;;;;;;7358791;32;20166;-62
2022/05/08 19:47:12;;;;;;;9.27;3.22;;;12.60;99.90;;;;;;7360294;32;20217;-63
2022/05/08 19:51:14;;;;;;;8.85;2.67;;;12.40;99.90;;;;;;7357239;32;20236;-61
2022/05/08 19:55:16;;;;;;;6.97;3.00;;;12.30;99.90;;;;;;7339415;32;20133;-63
2022/05/08 19:59:17;;;;;;;7.18;3.28;;;12.10;99.90;;;;;;7364687;32;20103;-61
2022/05/08 20:03:19;;;;;;;6.68;2.20;;;11.90;99.90;;;;;;7363577;32;20198;-62
2022/05/08 20:07:23;;;;;;;8.77;4.20;;;11.80;99.90;;;;;;7360621;32;20103;-61
2022/05/08 20:11:24;;;;;;;5.50;2.25;;;11.60;99.90;;;;;;7361416;32;20805;-62
2022/05/08 20:15:28;;;;;;;4.37;2.37;;;11.50;99.90;;;;;;7365166;32;20181;-61
2022/05/08 20:19:31;;;;;;;6.00;2.08;;;11.40;99.90;;;;;;7365401;32;20233;-61
2022/05/08 20:23:32;;;;;;;10.40;2.83;;;11.20;99.90;;;;;;7362526;32;20186;-62
2022/05/08 20:27:34;;;;;;;6.07;2.17;;;11.10;99.90;;;;;;7357155;32;20636;-61
2022/05/08 20:31:36;;;;;;;9.73;2.25;;;11.10;99.90;;;;;;7332458;32;20102;-61
2022/05/08 20:35:40;;;;;;;7.90;2.53;;;10.90;99.90;;;;;;7361748;32;20177;-62
2022/05/08 20:39:41;;;;;;;6.35;2.47;;;10.80;99.90;;;;;;7362090;32;20111;-61
2022/05/08 20:43:43;;;;;;;17.15;9.35;;;10.70;99.90;;;;;;7364254;32;20104;-61
2022/05/08 20:47:45;;;;;;;6.72;2.35;;;10.60;99.90;;;;;;7357198;32;20194;-61
2022/05/08 20:51:48;;;;;;;5.85;2.60;;;10.50;99.90;;;;;;7365440;32;20585;-61
2022/05/08 20:55:49;;;;;;;11.25;4.85;;;10.40;99.90;;;;;;7352508;32;20161;-61
2022/05/08 20:59:51;;;;;;;16.12;7.22;;;10.30;99.90;;;;;;7356055;32;20551;-61
2022/05/08 21:03:53;;;;;;;7.37;4.45;;;10.20;99.90;;;;;;7354854;32;20125;-59
2022/05/08 21:07:57;;;;;;;8.45;3.12;;;10.10;99.90;;;;;;7360303;32;20272;-60
2022/05/08 21:11:59;;;;;;;10.38;3.08;;;10.00;99.90;;;;;;7363315;32;20221;-58
2022/05/08 21:16:01;;;;;;;6.72;2.85;;;10.00;99.90;;;;;;7358169;32;20273;-60
2022/05/08 21:20:03;;;;;;;7.87;2.97;;;9.90;99.90;;;;;;7369582;32;20646;-60
2022/05/08 21:24:06;;;;;;;8.48;2.85;;;9.80;99.90;;;;;;7353647;32;20676;-59
2022/05/08 21:28:08;;;;;;;7.20;2.95;;;9.70;99.90;;;;;;7349120;32;20129;-61
2022/05/08 21:32:09;;;;;;;5.57;3.58;;;9.60;99.90;;;;;;7355221;32;20107;-59
2022/05/08 21:36:13;;;;;;;9.80;5.00;;;9.60;99.90;;;;;;7365108;32;20102;-59
2022/05/08 21:40:14;;;;;;;11.77;3.50;;;9.50;99.90;;;;;;7363310;32;20758;-59
2022/05/08 21:44:16;;;;;;;8.13;2.80;;;9.40;99.90;;;;;;7349728;32;20108;-60